createdAt,value
2018-08-19T00:02:18.169Z,74.20
2018-08-19T00:05:02.882Z,74.10
2018-08-19T00:07:32.049Z,74.50
2018-08-19T00:10:01.069Z,74.00
2018-08-19T00:12:44.417Z,75.00
2018-08-19T00:15:13.901Z,74.60
2018-08-19T00:17:43.137Z,75.00
2018-08-19T00:20:13.222Z,75.30
2018-08-19T00:22:42.392Z,75.40
2018-08-19T00:25:16.753Z,75.90
2018-08-19T00:27:45.825Z,76.00
2018-08-19T00:30:14.946Z,76.20
2018-08-19T00:32:44.113Z,75.70
2018-08-19T00:35:13.314Z,75.30
2018-08-19T00:37:42.419Z,76.30
2018-08-19T00:40:12.405Z,76.30
2018-08-19T00:42:43.415Z,77.90
2018-08-19T00:45:12.649Z,76.60
2018-08-19T00:47:41.773Z,76.30
2018-08-19T00:50:10.932Z,76.40
2018-08-19T00:52:40.166Z,76.10
2018-08-19T00:55:09.319Z,76.00
2018-08-19T00:57:39.157Z,76.10
2018-08-19T01:00:08.189Z,75.70
2018-08-19T01:02:37.264Z,76.30
2018-08-19T01:05:06.402Z,78.40
2018-08-19T01:07:35.475Z,77.50
2018-08-19T01:10:04.667Z,76.20
2018-08-19T01:12:33.803Z,77.50
2018-08-19T01:15:02.959Z,78.10
2018-08-19T01:17:36.283Z,78.00
2018-08-19T01:20:08.519Z,77.70
2018-08-19T01:22:39.312Z,76.60
2018-08-19T01:25:09.288Z,76.70
2018-08-19T01:27:39.505Z,77.50
2018-08-19T01:30:12.432Z,77.40
2018-08-19T01:32:41.512Z,77.80
2018-08-19T01:35:10.576Z,77.80
2018-08-19T01:37:40.233Z,77.60
2018-08-19T01:40:12.459Z,78.30
2018-08-19T01:42:41.532Z,78.30
2018-08-19T01:45:11.036Z,78.40
2018-08-19T01:47:40.156Z,78.50
2018-08-19T01:50:10.921Z,78.10
2018-08-19T01:52:40.448Z,77.30
2018-08-19T01:55:09.874Z,77.10
2018-08-19T01:57:45.608Z,77.20
2018-08-19T02:00:15.336Z,76.90
2018-08-19T02:02:59.063Z,77.50
2018-08-19T02:05:28.219Z,76.70
2018-08-19T02:07:58.773Z,77.60
2018-08-19T02:10:28.791Z,76.90
2018-08-19T02:12:58.310Z,77.80
2018-08-19T02:15:28.532Z,77.80
2018-08-19T02:17:59.884Z,77.30
2018-08-19T02:20:33.837Z,78.20
2018-08-19T02:23:05.154Z,78.90
2018-08-19T02:25:44.804Z,79.90
2018-08-19T02:28:14.580Z,79.40
2018-08-19T02:30:53.986Z,78.90
2018-08-19T02:33:23.847Z,80.80
2018-08-19T02:35:58.128Z,79.70
2018-08-19T02:38:27.170Z,80.00
2018-08-19T02:40:56.292Z,80.80
2018-08-19T02:43:25.350Z,80.90
2018-08-19T02:45:54.455Z,82.40
2018-08-19T02:48:41.225Z,82.30
2018-08-19T02:51:12.093Z,81.80
2018-08-19T02:53:41.918Z,82.20
2018-08-19T02:56:11.529Z,82.20
2018-08-19T02:58:41.520Z,81.80
2018-08-19T03:01:11.261Z,82.20
2018-08-19T03:03:40.309Z,84.00
2018-08-19T03:06:09.549Z,83.60
2018-08-19T03:08:47.533Z,82.90
2018-08-19T03:11:18.909Z,83.10
2018-08-19T03:13:48.503Z,82.90
2018-08-19T03:16:17.629Z,83.10
2018-08-19T03:18:49.163Z,82.60
2018-08-19T03:21:18.657Z,82.70
2018-08-19T03:23:49.681Z,82.20
2018-08-19T03:26:18.901Z,82.20
2018-08-19T03:28:48.029Z,82.60
2018-08-19T03:31:17.069Z,81.00
2018-08-19T03:33:46.069Z,81.80
2018-08-19T03:36:15.227Z,80.70
2018-08-19T03:38:44.299Z,80.70
2018-08-19T03:41:13.342Z,81.00
2018-08-19T03:43:47.313Z,81.90
2018-08-19T03:46:19.747Z,80.70
2018-08-19T03:48:49.656Z,80.30
2018-08-19T03:51:18.785Z,80.40
2018-08-19T03:53:47.903Z,80.60
2018-08-19T03:56:22.485Z,80.70
2018-08-19T03:58:54.083Z,81.30
2018-08-19T04:01:34.571Z,81.60
2018-08-19T04:04:03.608Z,81.70
2018-08-19T04:06:32.912Z,82.10
2018-08-19T04:09:01.986Z,80.40
2018-08-19T04:11:31.085Z,81.70
2018-08-19T04:14:00.186Z,82.50
2018-08-19T04:16:29.203Z,81.80
2018-08-19T04:19:04.149Z,82.70
2018-08-19T04:21:33.197Z,83.00
2018-08-19T04:24:09.945Z,82.20
2018-08-19T04:26:39.081Z,82.90
2018-08-19T04:29:12.403Z,83.00
2018-08-19T04:31:41.501Z,84.80
2018-08-19T04:34:11.364Z,85.90
2018-08-19T04:36:41.110Z,84.40
2018-08-19T04:39:10.208Z,84.80
2018-08-19T04:41:39.276Z,84.00
2018-08-19T04:44:08.414Z,84.50
2018-08-19T04:46:37.510Z,85.20
2018-08-19T04:49:06.655Z,84.70
2018-08-19T04:51:35.761Z,84.50
2018-08-19T04:54:05.907Z,86.80
2018-08-19T04:56:35.007Z,86.30
2018-08-19T04:59:05.443Z,85.70
2018-08-19T05:01:34.526Z,85.50
2018-08-19T05:04:03.635Z,85.90
2018-08-19T05:06:32.782Z,87.10
2018-08-19T05:09:01.881Z,85.50
2018-08-19T05:11:31.026Z,86.50
2018-08-19T05:14:00.121Z,86.70
2018-08-19T05:16:29.314Z,87.80
2018-08-19T05:19:05.518Z,88.10
2018-08-19T05:21:34.592Z,87.80
2018-08-19T05:24:04.315Z,87.30
2018-08-19T05:26:33.441Z,87.30
2018-08-19T05:29:10.394Z,88.10
2018-08-19T05:31:44.717Z,88.60
2018-08-19T05:34:17.738Z,87.50
2018-08-19T05:36:49.433Z,87.90
2018-08-19T05:39:18.539Z,88.40
2018-08-19T05:42:00.221Z,87.70
2018-08-19T05:44:32.436Z,87.90
2018-08-19T05:47:07.816Z,90.10
2018-08-19T05:49:38.990Z,87.70
2018-08-19T05:52:13.692Z,88.00
2018-08-19T05:54:47.987Z,88.40
2018-08-19T05:57:17.881Z,89.80
2018-08-19T05:59:48.822Z,86.40
2018-08-19T06:02:22.180Z,88.30
2018-08-19T06:04:51.197Z,88.00
2018-08-19T06:07:20.358Z,87.40
2018-08-19T06:09:49.498Z,87.40
2018-08-19T06:12:18.628Z,88.70
2018-08-19T06:14:47.756Z,88.00
2018-08-19T06:17:16.862Z,87.70
2018-08-19T06:19:45.904Z,88.50
2018-08-19T06:22:15.013Z,88.00
2018-08-19T06:24:44.339Z,87.70
2018-08-19T06:27:13.413Z,89.10
2018-08-19T06:29:51.161Z,89.50
2018-08-19T06:32:32.625Z,90.20
2018-08-19T06:35:01.812Z,88.80
2018-08-19T06:37:30.841Z,88.70
2018-08-19T06:39:59.973Z,89.00
2018-08-19T06:42:29.091Z,88.80
2018-08-19T06:44:58.275Z,88.20
2018-08-19T06:47:27.409Z,88.40
2018-08-19T06:49:57.847Z,89.10
2018-08-19T06:52:27.345Z,88.20
2018-08-19T06:54:56.569Z,88.20
2018-08-19T06:57:28.559Z,88.90
2018-08-19T06:59:57.733Z,88.40
2018-08-19T07:02:26.852Z,89.80
2018-08-19T07:04:55.959Z,89.60
2018-08-19T07:07:26.100Z,89.40
2018-08-19T07:09:55.181Z,88.60
2018-08-19T07:12:24.256Z,89.00
2018-08-19T07:14:53.355Z,90.00
2018-08-19T07:17:22.647Z,89.70
2018-08-19T07:19:51.937Z,89.20
2018-08-19T07:22:21.842Z,89.90
2018-08-19T07:24:50.917Z,90.10
2018-08-19T07:27:20.032Z,89.40
2018-08-19T07:29:49.241Z,89.60
2018-08-19T07:32:18.513Z,89.20
2018-08-19T07:34:47.567Z,90.30
2018-08-19T07:37:16.705Z,90.50
2018-08-19T07:39:51.245Z,89.90
2018-08-19T07:42:20.406Z,90.00
2018-08-19T07:44:49.453Z,90.00
2018-08-19T07:47:18.589Z,89.80
2018-08-19T07:49:47.701Z,89.40
2018-08-19T07:52:16.727Z,89.50
2018-08-19T07:54:45.839Z,89.30
2018-08-19T07:57:26.059Z,89.20
2018-08-19T07:59:55.333Z,88.90
2018-08-19T08:02:28.909Z,88.90
2018-08-19T08:04:58.013Z,88.50
2018-08-19T08:07:29.545Z,88.50
2018-08-19T08:09:58.687Z,87.90
2018-08-19T08:12:27.722Z,87.80
2018-08-19T08:14:56.820Z,87.90
2018-08-19T08:17:27.012Z,87.80
2018-08-19T08:20:02.493Z,87.40
2018-08-19T08:22:32.582Z,87.00
2018-08-19T08:25:01.865Z,87.30
2018-08-19T08:27:32.028Z,87.00
2018-08-19T08:30:05.220Z,86.60
2018-08-19T08:32:36.564Z,86.70
2018-08-19T08:35:07.754Z,86.50
2018-08-19T08:37:36.866Z,86.20
2018-08-19T08:40:10.408Z,85.40
2018-08-19T08:42:40.443Z,85.90
2018-08-19T08:45:10.860Z,84.40
2018-08-19T08:47:40.128Z,85.80
2018-08-19T08:50:11.085Z,85.90
2018-08-19T08:52:42.956Z,84.80
2018-08-19T08:55:12.922Z,83.50
2018-08-19T08:57:41.953Z,84.70
2018-08-19T09:00:13.127Z,85.70
2018-08-19T09:02:42.338Z,83.60
2018-08-19T09:05:12.178Z,84.00
2018-08-19T09:07:41.520Z,82.70
2018-08-19T09:10:12.506Z,81.90
2018-08-19T09:12:49.934Z,82.80
2018-08-19T09:15:19.205Z,82.00
2018-08-19T09:17:48.589Z,80.00
2018-08-19T09:20:18.674Z,80.90
2018-08-19T09:22:48.462Z,81.20
2018-08-19T09:25:17.444Z,82.10
2018-08-19T09:27:46.502Z,80.70
2018-08-19T09:30:37.080Z,79.20
2018-08-19T09:33:06.196Z,79.00
2018-08-19T09:38:22.556Z,80.10
2018-08-19T09:43:20.466Z,77.80
2018-08-19T09:45:49.570Z,79.50
2018-08-19T09:48:18.957Z,77.30
2018-08-19T09:50:48.103Z,78.70
2018-08-19T09:54:41.675Z,79.00
2018-08-19T09:57:10.737Z,78.50
2018-08-19T09:59:39.842Z,77.00
2018-08-19T10:02:10.030Z,78.00
2018-08-19T10:04:39.142Z,77.10
2018-08-19T10:07:12.107Z,77.90
2018-08-19T10:09:41.519Z,76.80
2018-08-19T10:12:11.496Z,77.80
2018-08-19T10:14:40.571Z,77.60
2018-08-19T10:17:09.601Z,77.90
2018-08-19T10:19:38.659Z,76.80
2018-08-19T10:22:07.923Z,77.90
2018-08-19T10:24:37.027Z,78.00
2018-08-19T10:27:07.449Z,77.00
2018-08-19T10:29:36.564Z,78.10
2018-08-19T10:32:05.845Z,77.70
2018-08-19T10:34:36.007Z,75.50
2018-08-19T10:37:05.796Z,76.80
2018-08-19T10:39:34.908Z,77.50
2018-08-19T10:42:18.403Z,74.00
2018-08-19T10:44:50.154Z,74.60
2018-08-19T10:47:20.168Z,74.70
2018-08-19T10:49:54.873Z,75.90
2018-08-19T10:52:26.597Z,76.30
2018-08-19T10:54:56.881Z,75.30
2018-08-19T10:57:26.086Z,73.90
2018-08-19T10:59:56.760Z,73.50
2018-08-19T11:02:25.720Z,75.10
2018-08-19T11:04:55.109Z,75.30
2018-08-19T11:07:24.191Z,71.70
2018-08-19T11:10:37.545Z,72.90
2018-08-19T11:13:07.254Z,72.20
2018-08-19T11:15:50.480Z,73.80
2018-08-19T11:18:28.770Z,73.40
2018-08-19T11:21:07.849Z,71.10
2018-08-19T11:23:39.258Z,72.00
2018-08-19T11:26:08.905Z,70.70
2018-08-19T11:28:42.583Z,72.70
2018-08-19T11:31:21.061Z,71.70
2018-08-19T11:33:50.637Z,70.20
2018-08-19T11:36:20.350Z,71.70
2018-08-19T11:38:50.953Z,71.90
2018-08-19T11:41:20.573Z,72.00
2018-08-19T11:43:50.492Z,72.60
2018-08-19T11:46:19.564Z,72.40
2018-08-19T11:48:54.944Z,71.90
2018-08-19T11:51:39.459Z,72.90
2018-08-19T11:54:09.493Z,72.50
2018-08-19T11:56:38.608Z,73.30
2018-08-19T11:59:08.005Z,72.40
2018-08-19T12:01:37.133Z,72.50
2018-08-19T12:04:10.037Z,72.40
2018-08-19T12:06:39.206Z,72.90
2018-08-19T12:09:09.897Z,73.60
2018-08-19T12:11:40.525Z,72.80
2018-08-19T12:14:11.548Z,73.50
2018-08-19T12:16:48.057Z,72.90
2018-08-19T12:19:23.192Z,74.20
2018-08-19T12:21:54.523Z,74.30
2018-08-19T12:24:27.688Z,74.00
2018-08-19T12:26:58.736Z,74.00
2018-08-19T12:29:29.070Z,73.60
2018-08-19T12:32:08.214Z,72.90
2018-08-19T12:34:43.654Z,73.90
2018-08-19T12:37:13.817Z,74.40
2018-08-19T12:39:42.900Z,73.90
2018-08-19T12:42:13.016Z,73.00
2018-08-19T12:44:42.245Z,73.10
2018-08-19T12:47:14.454Z,74.00
2018-08-19T12:49:44.997Z,73.70
2018-08-19T12:52:17.266Z,74.40
2018-08-19T12:54:49.696Z,73.30
2018-08-19T12:57:18.940Z,74.10
2018-08-19T12:59:47.990Z,73.70
2018-08-19T13:02:17.074Z,73.40
2018-08-19T13:04:46.114Z,73.20
2018-08-19T13:07:16.227Z,72.80
2018-08-19T13:09:49.438Z,73.40
2018-08-19T13:12:18.616Z,72.70
2018-08-19T13:14:47.709Z,72.50
2018-08-19T13:17:16.859Z,72.80
2018-08-19T13:19:52.934Z,74.20
2018-08-19T13:22:22.069Z,73.80
2018-08-19T13:24:51.166Z,74.10
2018-08-19T13:27:20.266Z,72.20
2018-08-19T13:29:49.379Z,72.60
2018-08-19T13:32:18.465Z,73.20
2018-08-19T13:34:47.654Z,73.60
2018-08-19T13:37:16.689Z,74.10
2018-08-19T13:39:45.843Z,74.10
2018-08-19T13:42:15.145Z,72.80
2018-08-19T13:44:44.265Z,71.90
2018-08-19T13:47:13.419Z,73.00
2018-08-19T13:49:42.418Z,72.80
2018-08-19T13:52:11.553Z,73.50
2018-08-19T13:54:50.680Z,74.20
2018-08-19T13:57:19.755Z,73.90
2018-08-19T13:59:49.278Z,73.50
2018-08-19T14:02:18.341Z,74.20
2018-08-19T14:04:47.437Z,72.70
2018-08-19T14:07:16.573Z,72.30
2018-08-19T14:09:45.640Z,71.80
2018-08-19T14:12:14.856Z,71.60
2018-08-19T14:14:44.005Z,71.80
2018-08-19T14:17:13.041Z,72.40
2018-08-19T14:19:42.157Z,71.60
2018-08-19T14:22:11.249Z,72.50
2018-08-19T14:24:40.324Z,71.30
2018-08-19T14:27:09.396Z,71.70
2018-08-19T14:29:38.532Z,71.40
2018-08-19T14:32:46.239Z,71.10
2018-08-19T14:35:15.498Z,71.50
2018-08-19T14:37:44.468Z,70.70
2018-08-19T14:40:18.301Z,71.60
2018-08-19T14:42:47.420Z,71.20
2018-08-19T14:45:16.487Z,72.30
2018-08-19T14:47:45.616Z,70.30
2018-08-19T14:53:49.546Z,72.90
2018-08-19T14:56:18.624Z,70.80
2018-08-19T14:58:47.723Z,71.40
2018-08-19T15:01:16.918Z,70.50
2018-08-19T15:03:51.458Z,70.20
2018-08-19T15:06:20.548Z,70.70
2018-08-19T15:08:49.548Z,71.60
2018-08-19T15:11:18.728Z,71.60
2018-08-19T15:13:47.822Z,70.00
2018-08-19T15:16:16.924Z,69.00
2018-08-19T15:18:46.070Z,68.70
2018-08-19T15:21:15.216Z,69.40
2018-08-19T15:23:44.335Z,69.70
2018-08-19T15:26:13.503Z,70.60
2018-08-19T15:28:42.705Z,68.40
2018-08-19T15:31:16.048Z,69.10
2018-08-19T15:33:45.182Z,68.20
2018-08-19T15:36:14.187Z,70.30
2018-08-19T15:38:43.220Z,70.10
2018-08-19T15:41:12.593Z,69.60
2018-08-19T15:43:41.744Z,69.20
2018-08-19T15:46:10.768Z,68.60
2018-08-19T15:48:39.852Z,68.90
2018-08-19T15:51:11.922Z,69.10
2018-08-19T15:53:41.046Z,68.40
2018-08-19T15:56:10.104Z,69.60
2018-08-19T15:58:39.282Z,68.10
2018-08-19T16:01:19.694Z,68.70
2018-08-19T16:03:48.828Z,67.40
2018-08-19T16:06:17.945Z,66.70
2018-08-19T16:08:46.932Z,67.40
2018-08-19T16:13:44.797Z,66.20
2018-08-19T16:16:18.460Z,68.20
2018-08-19T16:18:47.582Z,68.30
2018-08-19T16:21:16.733Z,68.00
2018-08-19T16:23:45.942Z,68.60
2018-08-19T16:26:15.089Z,66.40
2018-08-19T16:28:44.248Z,67.50
2018-08-19T16:31:13.381Z,68.60
2018-08-19T16:33:42.489Z,68.90
2018-08-19T16:36:11.648Z,68.10
2018-08-19T16:38:40.835Z,68.00
2018-08-19T16:41:09.967Z,66.80
2018-08-19T16:43:39.094Z,66.80
2018-08-19T16:46:08.168Z,65.80
2018-08-19T16:48:37.270Z,66.30
2018-08-19T16:51:06.588Z,67.80
2018-08-19T16:53:35.637Z,65.00
2018-08-19T16:56:04.774Z,66.20
2018-08-19T16:58:33.868Z,65.40
2018-08-19T17:01:03.093Z,66.50
2018-08-19T17:03:34.667Z,66.70
2018-08-19T17:06:04.529Z,66.80
2018-08-19T17:08:33.605Z,67.00
2018-08-19T17:11:02.766Z,67.00
2018-08-19T17:13:31.949Z,65.80
2018-08-19T17:16:01.100Z,66.20
2018-08-19T17:18:30.435Z,66.60
2018-08-19T17:20:59.440Z,64.90
2018-08-19T17:23:28.437Z,66.20
2018-08-19T17:26:02.290Z,64.80
2018-08-19T17:28:31.453Z,64.90
2018-08-19T17:31:00.530Z,65.50
2018-08-19T17:33:31.073Z,65.60
2018-08-19T17:36:00.265Z,66.60
2018-08-19T17:38:30.424Z,64.30
2018-08-19T17:40:59.993Z,65.20
2018-08-19T17:43:35.205Z,64.50
2018-08-19T17:46:09.078Z,65.00
2018-08-19T17:48:39.578Z,66.00
2018-08-19T17:51:21.219Z,65.30
2018-08-19T17:53:50.455Z,65.60
2018-08-19T17:56:20.007Z,64.70
2018-08-19T17:58:49.779Z,66.10
2018-08-19T18:01:19.072Z,65.90
2018-08-19T18:03:48.303Z,66.10
2018-08-19T18:06:17.616Z,66.30
2018-08-19T18:08:48.848Z,66.70
2018-08-19T18:11:18.169Z,66.70
2018-08-19T18:13:47.518Z,66.80
2018-08-19T18:16:17.568Z,67.00
2018-08-19T18:18:47.464Z,67.30
2018-08-19T18:21:16.636Z,67.60
2018-08-19T18:23:47.510Z,67.70
2018-08-19T18:26:16.660Z,68.10
2018-08-19T18:28:47.467Z,68.30
2018-08-19T18:31:19.501Z,68.30
2018-08-19T18:33:53.936Z,68.40
2018-08-19T18:36:24.252Z,68.70
2018-08-19T18:38:53.364Z,68.90
2018-08-19T18:41:27.072Z,69.00
2018-08-19T18:43:59.416Z,69.20
2018-08-19T18:46:28.823Z,69.30
2018-08-19T18:49:07.178Z,69.40
2018-08-19T18:51:36.242Z,69.40
2018-08-19T18:54:05.375Z,69.50
2018-08-19T18:56:34.562Z,69.60
2018-08-19T18:59:03.948Z,69.70
2018-08-19T19:01:33.044Z,69.70
2018-08-19T19:04:02.098Z,69.90
2018-08-19T19:06:31.256Z,69.80
2018-08-19T19:09:00.348Z,69.90
2018-08-19T19:11:29.403Z,70.00
2018-08-19T19:13:59.631Z,70.20
2018-08-19T19:16:36.094Z,70.30
2018-08-19T19:19:05.138Z,70.30
2018-08-19T19:21:34.303Z,70.30
2018-08-19T19:24:03.412Z,70.30
2018-08-19T19:26:38.270Z,70.50
2018-08-19T19:29:10.208Z,70.70
2018-08-19T19:31:39.311Z,70.70
2018-08-19T19:34:14.428Z,70.70
2018-08-19T19:36:43.631Z,70.90
2018-08-19T19:39:12.805Z,70.90
2018-08-19T19:41:42.014Z,70.80
2018-08-19T19:44:22.769Z,71.40
2018-08-19T19:46:52.894Z,71.10
2018-08-19T19:49:22.466Z,70.90
2018-08-19T19:51:58.473Z,71.10
2018-08-19T19:54:29.090Z,71.30
2018-08-19T19:56:58.521Z,71.50
2018-08-19T19:59:29.505Z,71.20
2018-08-19T20:01:58.936Z,71.80
2018-08-19T20:04:28.207Z,71.60
2018-08-19T20:06:57.276Z,71.70
2018-08-19T20:09:26.413Z,71.40
2018-08-19T20:11:55.549Z,72.00
2018-08-19T20:14:25.714Z,71.90
2018-08-19T20:16:54.764Z,71.90
2018-08-19T20:19:24.878Z,72.60
2018-08-19T20:21:53.997Z,72.20
2018-08-19T20:24:23.113Z,73.00
2018-08-19T20:26:52.336Z,73.00
2018-08-19T20:29:21.461Z,74.10
2018-08-19T20:31:50.557Z,72.90
2018-08-19T20:34:19.655Z,73.80
2018-08-19T20:36:48.813Z,73.80
2018-08-19T20:39:18.031Z,73.80
2018-08-19T20:41:47.190Z,75.10
2018-08-19T20:44:16.290Z,75.70
2018-08-19T20:46:49.849Z,75.10
2018-08-19T20:49:18.894Z,75.90
2018-08-19T20:51:47.937Z,76.30
2018-08-19T20:54:17.041Z,77.70
2018-08-19T20:56:46.168Z,78.30
2018-08-19T20:59:20.733Z,79.40
2018-08-19T21:01:50.155Z,78.80
2018-08-19T21:04:19.149Z,78.90
2018-08-19T21:06:48.539Z,78.20
2018-08-19T21:09:17.631Z,79.10
2018-08-19T21:11:46.709Z,78.60
2018-08-19T21:14:15.817Z,78.10
2018-08-19T21:16:44.935Z,77.60
2018-08-19T21:19:14.216Z,78.00
2018-08-19T21:21:43.339Z,79.50
2018-08-19T21:24:12.387Z,79.80
2018-08-19T21:26:42.635Z,79.60
2018-08-19T21:29:11.769Z,79.70
2018-08-19T21:31:40.937Z,81.20
2018-08-19T21:34:09.998Z,82.20
2018-08-19T21:36:39.125Z,81.30
2018-08-19T21:39:08.820Z,81.20
2018-08-19T21:41:48.567Z,81.20
2018-08-19T21:44:18.376Z,82.40
2018-08-19T21:46:47.484Z,82.80
2018-08-19T21:49:16.664Z,82.00
2018-08-19T21:51:45.794Z,82.30
2018-08-19T21:54:16.296Z,82.30
2018-08-19T21:56:45.420Z,82.50
2018-08-19T21:59:22.900Z,82.60
2018-08-19T22:01:59.319Z,81.40
2018-08-19T22:04:29.082Z,82.50
2018-08-19T22:06:58.199Z,83.00
2018-08-19T22:09:42.204Z,82.30
2018-08-19T22:12:11.425Z,83.00
2018-08-19T22:14:40.553Z,84.10
2018-08-19T22:17:11.533Z,83.80
2018-08-19T22:19:41.700Z,83.50
2018-08-19T22:22:10.728Z,84.00
2018-08-19T22:24:39.762Z,83.50
2018-08-19T22:27:16.890Z,83.70
2018-08-19T22:29:46.513Z,83.80
2018-08-19T22:32:15.573Z,83.80
2018-08-19T22:34:44.661Z,85.00
2018-08-19T22:37:13.745Z,83.80
2018-08-19T22:39:42.914Z,84.30
2018-08-19T22:42:12.040Z,83.80
2018-08-19T22:44:41.941Z,84.60
2018-08-19T22:47:11.055Z,83.80
2018-08-19T22:49:40.152Z,84.80
2018-08-19T22:52:23.271Z,83.70
2018-08-19T22:54:55.071Z,84.80
2018-08-19T22:57:24.281Z,84.40
2018-08-19T22:59:53.610Z,84.10
2018-08-19T23:02:23.144Z,82.90
2018-08-19T23:04:52.213Z,83.20
2018-08-19T23:07:21.365Z,84.40
2018-08-19T23:09:50.442Z,85.10
2018-08-19T23:12:19.514Z,83.60
2018-08-19T23:15:00.025Z,85.20
2018-08-19T23:17:29.121Z,86.60
2018-08-19T23:19:58.180Z,86.70
2018-08-19T23:22:27.191Z,85.20
2018-08-19T23:24:56.333Z,85.90
2018-08-19T23:27:25.522Z,85.00
2018-08-19T23:29:54.672Z,85.10
2018-08-19T23:32:23.757Z,84.80
2018-08-19T23:34:52.881Z,85.00
2018-08-19T23:37:21.910Z,84.50
2018-08-19T23:39:51.072Z,85.00
2018-08-19T23:42:20.129Z,84.30
2018-08-19T23:44:49.237Z,84.00
2018-08-19T23:47:18.351Z,83.70
2018-08-19T23:49:47.454Z,84.00
2018-08-19T23:52:16.496Z,84.20
2018-08-19T23:54:45.665Z,84.00
2018-08-19T23:57:14.681Z,84.00
2018-08-19T23:59:46.058Z,83.80
